sensor_id;sensor_type;location;lat;lon;timestamp;P1;durP1;ratioP1;P2;durP2;ratioP2
24357;SDS011;13668;52.154;5.580;2022-11-20T00:01:06;24.77;;;14.45;;
24357;SDS011;13668;52.154;5.580;2022-11-20T00:03:32;19.63;;;13.85;;
24357;SDS011;13668;52.154;5.580;2022-11-20T00:06:02;19.60;;;12.77;;
24357;SDS011;13668;52.154;5.580;2022-11-20T00:08:28;20.23;;;13.80;;
24357;SDS011;13668;52.154;5.580;2022-11-20T00:10:54;21.00;;;13.98;;
24357;SDS011;13668;52.154;5.580;2022-11-20T00:13:20;23.35;;;14.00;;
24357;SDS011;13668;52.154;5.580;2022-11-20T00:15:46;24.13;;;14.63;;
24357;SDS011;13668;52.154;5.580;2022-11-20T00:18:12;20.50;;;13.52;;
24357;SDS011;13668;52.154;5.580;2022-11-20T00:20:38;20.70;;;13.52;;
24357;SDS011;13668;52.154;5.580;2022-11-20T00:23:04;20.38;;;13.60;;
24357;SDS011;13668;52.154;5.580;2022-11-20T00:25:33;22.35;;;14.60;;
24357;SDS011;13668;52.154;5.580;2022-11-20T00:27:59;21.73;;;14.38;;
24357;SDS011;13668;52.154;5.580;2022-11-20T00:30:25;22.30;;;13.77;;
24357;SDS011;13668;52.154;5.580;2022-11-20T00:32:51;21.65;;;13.68;;
24357;SDS011;13668;52.154;5.580;2022-11-20T00:35:17;19.33;;;12.75;;
24357;SDS011;13668;52.154;5.580;2022-11-20T00:37:43;19.88;;;13.55;;
24357;SDS011;13668;52.154;5.580;2022-11-20T00:40:09;21.90;;;13.95;;
24357;SDS011;13668;52.154;5.580;2022-11-20T00:42:35;19.33;;;13.30;;
24357;SDS011;13668;52.154;5.580;2022-11-20T00:45:01;20.80;;;14.15;;
24357;SDS011;13668;52.154;5.580;2022-11-20T00:47:30;18.25;;;12.77;;
24357;SDS011;13668;52.154;5.580;2022-11-20T00:49:56;18.45;;;13.38;;
24357;SDS011;13668;52.154;5.580;2022-11-20T00:52:21;20.58;;;13.90;;
24357;SDS011;13668;52.154;5.580;2022-11-20T00:54:47;20.83;;;14.55;;
24357;SDS011;13668;52.154;5.580;2022-11-20T00:57:13;18.92;;;13.85;;
24357;SDS011;13668;52.154;5.580;2022-11-20T00:59:39;19.45;;;13.35;;
24357;SDS011;13668;52.154;5.580;2022-11-20T01:02:05;19.73;;;13.27;;
24357;SDS011;13668;52.154;5.580;2022-11-20T01:04:31;20.00;;;13.38;;
24357;SDS011;13668;52.154;5.580;2022-11-20T01:06:57;19.63;;;13.48;;
24357;SDS011;13668;52.154;5.580;2022-11-20T01:09:23;16.00;;;12.90;;
24357;SDS011;13668;52.154;5.580;2022-11-20T01:11:49;19.92;;;13.50;;
24357;SDS011;13668;52.154;5.580;2022-11-20T01:14:16;19.33;;;12.82;;
24357;SDS011;13668;52.154;5.580;2022-11-20T01:16:44;20.55;;;13.40;;
24357;SDS011;13668;52.154;5.580;2022-11-20T01:19:12;16.67;;;12.85;;
24357;SDS011;13668;52.154;5.580;2022-11-20T01:21:39;19.38;;;13.45;;
24357;SDS011;13668;52.154;5.580;2022-11-20T01:24:06;19.77;;;13.98;;
24357;SDS011;13668;52.154;5.580;2022-11-20T01:26:33;19.27;;;13.52;;
24357;SDS011;13668;52.154;5.580;2022-11-20T01:28:59;19.50;;;12.90;;
24357;SDS011;13668;52.154;5.580;2022-11-20T01:31:35;18.67;;;12.88;;
24357;SDS011;13668;52.154;5.580;2022-11-20T01:34:03;19.75;;;13.20;;
24357;SDS011;13668;52.154;5.580;2022-11-20T01:36:30;20.55;;;12.57;;
24357;SDS011;13668;52.154;5.580;2022-11-20T01:39:00;20.38;;;13.65;;
24357;SDS011;13668;52.154;5.580;2022-11-20T01:41:27;21.02;;;13.75;;
24357;SDS011;13668;52.154;5.580;2022-11-20T01:44:13;21.13;;;14.25;;
24357;SDS011;13668;52.154;5.580;2022-11-20T01:46:40;19.77;;;13.30;;
24357;SDS011;13668;52.154;5.580;2022-11-20T01:49:22;22.98;;;14.82;;
24357;SDS011;13668;52.154;5.580;2022-11-20T01:51:50;17.88;;;12.38;;
24357;SDS011;13668;52.154;5.580;2022-11-20T01:54:19;22.73;;;13.75;;
24357;SDS011;13668;52.154;5.580;2022-11-20T01:56:46;20.00;;;13.05;;
24357;SDS011;13668;52.154;5.580;2022-11-20T01:59:14;20.88;;;13.25;;
24357;SDS011;13668;52.154;5.580;2022-11-20T02:01:41;18.73;;;13.15;;
24357;SDS011;13668;52.154;5.580;2022-11-20T02:04:07;18.25;;;13.23;;
24357;SDS011;13668;52.154;5.580;2022-11-20T02:06:41;17.67;;;12.98;;
24357;SDS011;13668;52.154;5.580;2022-11-20T02:09:11;23.08;;;13.85;;
24357;SDS011;13668;52.154;5.580;2022-11-20T02:11:37;20.55;;;13.13;;
24357;SDS011;13668;52.154;5.580;2022-11-20T02:14:03;20.30;;;12.18;;
24357;SDS011;13668;52.154;5.580;2022-11-20T02:16:34;18.70;;;12.90;;
24357;SDS011;13668;52.154;5.580;2022-11-20T02:19:01;17.70;;;13.57;;
24357;SDS011;13668;52.154;5.580;2022-11-20T02:21:30;19.33;;;13.32;;
24357;SDS011;13668;52.154;5.580;2022-11-20T02:26:27;19.52;;;13.05;;
24357;SDS011;13668;52.154;5.580;2022-11-20T02:28:55;22.30;;;13.38;;
24357;SDS011;13668;52.154;5.580;2022-11-20T02:31:21;16.75;;;12.95;;
24357;SDS011;13668;52.154;5.580;2022-11-20T02:33:47;18.40;;;13.20;;
24357;SDS011;13668;52.154;5.580;2022-11-20T02:36:14;18.73;;;12.98;;
24357;SDS011;13668;52.154;5.580;2022-11-20T02:38:41;18.85;;;13.35;;
24357;SDS011;13668;52.154;5.580;2022-11-20T02:41:07;18.63;;;12.75;;
24357;SDS011;13668;52.154;5.580;2022-11-20T02:43:33;19.20;;;13.05;;
24357;SDS011;13668;52.154;5.580;2022-11-20T02:45:59;20.23;;;13.35;;
24357;SDS011;13668;52.154;5.580;2022-11-20T02:48:26;19.98;;;12.55;;
24357;SDS011;13668;52.154;5.580;2022-11-20T02:50:52;18.75;;;13.10;;
24357;SDS011;13668;52.154;5.580;2022-11-20T02:53:18;23.23;;;13.80;;
24357;SDS011;13668;52.154;5.580;2022-11-20T02:55:44;18.80;;;13.35;;
24357;SDS011;13668;52.154;5.580;2022-11-20T02:58:10;19.45;;;13.35;;
24357;SDS011;13668;52.154;5.580;2022-11-20T03:00:36;19.38;;;13.45;;
24357;SDS011;13668;52.154;5.580;2022-11-20T03:03:02;18.17;;;13.50;;
24357;SDS011;13668;52.154;5.580;2022-11-20T03:05:28;19.55;;;13.25;;
24357;SDS011;13668;52.154;5.580;2022-11-20T03:07:54;18.38;;;12.65;;
24357;SDS011;13668;52.154;5.580;2022-11-20T03:10:20;19.80;;;12.70;;
24357;SDS011;13668;52.154;5.580;2022-11-20T03:12:46;20.73;;;13.38;;
24357;SDS011;13668;52.154;5.580;2022-11-20T03:15:12;18.27;;;13.00;;
24357;SDS011;13668;52.154;5.580;2022-11-20T03:17:38;20.42;;;14.13;;
24357;SDS011;13668;52.154;5.580;2022-11-20T03:20:04;21.05;;;14.07;;
24357;SDS011;13668;52.154;5.580;2022-11-20T03:22:30;19.77;;;13.07;;
24357;SDS011;13668;52.154;5.580;2022-11-20T03:24:56;18.60;;;12.52;;
24357;SDS011;13668;52.154;5.580;2022-11-20T03:27:22;20.60;;;13.18;;
24357;SDS011;13668;52.154;5.580;2022-11-20T03:29:48;19.83;;;13.15;;
24357;SDS011;13668;52.154;5.580;2022-11-20T03:32:14;19.77;;;12.85;;
24357;SDS011;13668;52.154;5.580;2022-11-20T03:34:40;17.63;;;12.55;;
24357;SDS011;13668;52.154;5.580;2022-11-20T03:37:06;18.55;;;12.70;;
24357;SDS011;13668;52.154;5.580;2022-11-20T03:39:32;17.38;;;12.15;;
24357;SDS011;13668;52.154;5.580;2022-11-20T03:42:01;17.73;;;12.60;;
24357;SDS011;13668;52.154;5.580;2022-11-20T03:44:27;21.55;;;13.68;;
24357;SDS011;13668;52.154;5.580;2022-11-20T03:46:53;17.17;;;12.13;;
24357;SDS011;13668;52.154;5.580;2022-11-20T03:49:19;19.83;;;13.05;;
24357;SDS011;13668;52.154;5.580;2022-11-20T03:51:44;18.05;;;12.52;;
24357;SDS011;13668;52.154;5.580;2022-11-20T03:54:10;17.55;;;12.48;;
24357;SDS011;13668;52.154;5.580;2022-11-20T03:56:37;17.52;;;11.98;;
24357;SDS011;13668;52.154;5.580;2022-11-20T03:59:04;18.23;;;12.85;;
24357;SDS011;13668;52.154;5.580;2022-11-20T04:01:31;19.23;;;12.90;;
24357;SDS011;13668;52.154;5.580;2022-11-20T04:03:57;17.30;;;11.93;;
24357;SDS011;13668;52.154;5.580;2022-11-20T04:06:27;20.00;;;13.18;;
24357;SDS011;13668;52.154;5.580;2022-11-20T04:08:57;18.92;;;12.70;;
24357;SDS011;13668;52.154;5.580;2022-11-20T04:11:27;21.23;;;12.68;;
24357;SDS011;13668;52.154;5.580;2022-11-20T04:13:54;19.20;;;13.30;;
24357;SDS011;13668;52.154;5.580;2022-11-20T04:16:21;17.98;;;11.82;;
24357;SDS011;13668;52.154;5.580;2022-11-20T04:18:51;21.83;;;13.13;;
24357;SDS011;13668;52.154;5.580;2022-11-20T04:21:17;17.98;;;12.23;;
24357;SDS011;13668;52.154;5.580;2022-11-20T04:23:43;20.58;;;13.23;;
24357;SDS011;13668;52.154;5.580;2022-11-20T04:26:10;18.10;;;12.02;;
24357;SDS011;13668;52.154;5.580;2022-11-20T04:28:36;19.02;;;12.32;;
24357;SDS011;13668;52.154;5.580;2022-11-20T04:31:06;17.73;;;13.05;;
24357;SDS011;13668;52.154;5.580;2022-11-20T04:33:33;19.88;;;12.40;;
24357;SDS011;13668;52.154;5.580;2022-11-20T04:36:06;21.35;;;13.48;;
24357;SDS011;13668;52.154;5.580;2022-11-20T04:38:32;18.88;;;13.38;;
24357;SDS011;13668;52.154;5.580;2022-11-20T04:40:59;19.27;;;12.43;;
24357;SDS011;13668;52.154;5.580;2022-11-20T04:43:25;18.73;;;12.48;;
24357;SDS011;13668;52.154;5.580;2022-11-20T04:45:54;18.25;;;11.93;;
24357;SDS011;13668;52.154;5.580;2022-11-20T04:48:21;18.92;;;12.90;;
24357;SDS011;13668;52.154;5.580;2022-11-20T04:50:47;23.42;;;12.48;;
24357;SDS011;13668;52.154;5.580;2022-11-20T04:53:13;18.25;;;12.57;;
24357;SDS011;13668;52.154;5.580;2022-11-20T04:55:39;19.65;;;12.57;;
24357;SDS011;13668;52.154;5.580;2022-11-20T04:58:05;16.52;;;11.88;;
24357;SDS011;13668;52.154;5.580;2022-11-20T05:00:31;27.60;;;16.52;;
24357;SDS011;13668;52.154;5.580;2022-11-20T05:02:57;28.58;;;16.95;;
24357;SDS011;13668;52.154;5.580;2022-11-20T05:05:22;28.58;;;16.35;;
24357;SDS011;13668;52.154;5.580;2022-11-20T05:07:48;20.27;;;14.68;;
24357;SDS011;13668;52.154;5.580;2022-11-20T05:10:14;23.55;;;13.65;;
24357;SDS011;13668;52.154;5.580;2022-11-20T05:12:40;19.85;;;12.40;;
24357;SDS011;13668;52.154;5.580;2022-11-20T05:15:06;20.70;;;12.65;;
24357;SDS011;13668;52.154;5.580;2022-11-20T05:17:33;18.25;;;12.38;;
24357;SDS011;13668;52.154;5.580;2022-11-20T05:19:58;20.40;;;13.02;;
24357;SDS011;13668;52.154;5.580;2022-11-20T05:22:24;20.70;;;13.20;;
24357;SDS011;13668;52.154;5.580;2022-11-20T05:24:50;19.85;;;13.07;;
24357;SDS011;13668;52.154;5.580;2022-11-20T05:27:16;18.63;;;12.90;;
24357;SDS011;13668;52.154;5.580;2022-11-20T05:29:42;22.50;;;13.57;;
24357;SDS011;13668;52.154;5.580;2022-11-20T05:32:08;22.80;;;13.65;;
24357;SDS011;13668;52.154;5.580;2022-11-20T05:34:35;23.15;;;13.95;;
24357;SDS011;13668;52.154;5.580;2022-11-20T05:37:01;18.85;;;13.55;;
24357;SDS011;13668;52.154;5.580;2022-11-20T05:39:28;22.15;;;14.35;;
24357;SDS011;13668;52.154;5.580;2022-11-20T05:41:54;18.98;;;12.70;;
24357;SDS011;13668;52.154;5.580;2022-11-20T05:44:39;18.13;;;13.32;;
24357;SDS011;13668;52.154;5.580;2022-11-20T05:47:05;22.92;;;13.80;;
24357;SDS011;13668;52.154;5.580;2022-11-20T05:49:31;21.20;;;14.05;;
24357;SDS011;13668;52.154;5.580;2022-11-20T05:51:57;23.70;;;14.98;;
24357;SDS011;13668;52.154;5.580;2022-11-20T05:54:23;23.13;;;14.05;;
24357;SDS011;13668;52.154;5.580;2022-11-20T05:56:49;23.05;;;15.35;;
24357;SDS011;13668;52.154;5.580;2022-11-20T05:59:15;25.15;;;15.55;;
24357;SDS011;13668;52.154;5.580;2022-11-20T06:01:41;24.48;;;14.95;;
24357;SDS011;13668;52.154;5.580;2022-11-20T06:04:07;24.50;;;14.95;;
24357;SDS011;13668;52.154;5.580;2022-11-20T06:06:33;22.48;;;14.75;;
24357;SDS011;13668;52.154;5.580;2022-11-20T06:08:58;24.02;;;15.18;;
24357;SDS011;13668;52.154;5.580;2022-11-20T06:11:24;21.48;;;13.98;;
24357;SDS011;13668;52.154;5.580;2022-11-20T06:13:50;22.33;;;15.00;;
24357;SDS011;13668;52.154;5.580;2022-11-20T06:16:17;24.55;;;15.00;;
24357;SDS011;13668;52.154;5.580;2022-11-20T06:18:44;23.65;;;15.30;;
24357;SDS011;13668;52.154;5.580;2022-11-20T06:21:12;28.50;;;15.85;;
24357;SDS011;13668;52.154;5.580;2022-11-20T06:23:38;23.85;;;14.98;;
24357;SDS011;13668;52.154;5.580;2022-11-20T06:26:05;28.70;;;16.08;;
24357;SDS011;13668;52.154;5.580;2022-11-20T06:28:31;23.45;;;15.52;;
24357;SDS011;13668;52.154;5.580;2022-11-20T06:30:58;25.70;;;15.43;;
24357;SDS011;13668;52.154;5.580;2022-11-20T06:33:24;27.42;;;15.82;;
24357;SDS011;13668;52.154;5.580;2022-11-20T06:35:51;27.30;;;16.80;;
24357;SDS011;13668;52.154;5.580;2022-11-20T06:38:17;23.98;;;15.32;;
24357;SDS011;13668;52.154;5.580;2022-11-20T06:40:43;26.38;;;14.82;;
24357;SDS011;13668;52.154;5.580;2022-11-20T06:43:09;27.50;;;15.43;;
24357;SDS011;13668;52.154;5.580;2022-11-20T06:45:35;25.05;;;15.10;;
24357;SDS011;13668;52.154;5.580;2022-11-20T06:48:01;24.60;;;14.80;;
24357;SDS011;13668;52.154;5.580;2022-11-20T06:50:28;25.63;;;15.00;;
24357;SDS011;13668;52.154;5.580;2022-11-20T06:52:54;24.48;;;14.80;;
24357;SDS011;13668;52.154;5.580;2022-11-20T06:55:20;23.13;;;15.38;;
24357;SDS011;13668;52.154;5.580;2022-11-20T06:57:46;22.65;;;14.13;;
24357;SDS011;13668;52.154;5.580;2022-11-20T07:00:12;26.73;;;13.48;;
24357;SDS011;13668;52.154;5.580;2022-11-20T07:02:38;25.10;;;15.68;;
24357;SDS011;13668;52.154;5.580;2022-11-20T07:05:04;26.20;;;16.77;;
24357;SDS011;13668;52.154;5.580;2022-11-20T07:07:30;28.15;;;16.88;;
24357;SDS011;13668;52.154;5.580;2022-11-20T07:09:56;26.42;;;17.38;;
24357;SDS011;13668;52.154;5.580;2022-11-20T07:12:22;25.92;;;16.35;;
24357;SDS011;13668;52.154;5.580;2022-11-20T07:14:48;25.35;;;15.05;;
24357;SDS011;13668;52.154;5.580;2022-11-20T07:17:14;23.48;;;15.90;;
24357;SDS011;13668;52.154;5.580;2022-11-20T07:19:40;24.15;;;14.85;;
24357;SDS011;13668;52.154;5.580;2022-11-20T07:22:07;21.30;;;14.35;;
24357;SDS011;13668;52.154;5.580;2022-11-20T07:24:33;23.20;;;15.65;;
24357;SDS011;13668;52.154;5.580;2022-11-20T07:26:59;22.63;;;14.98;;
24357;SDS011;13668;52.154;5.580;2022-11-20T07:29:25;19.63;;;14.00;;
24357;SDS011;13668;52.154;5.580;2022-11-20T07:31:51;24.65;;;16.30;;
24357;SDS011;13668;52.154;5.580;2022-11-20T07:34:17;27.17;;;15.02;;
24357;SDS011;13668;52.154;5.580;2022-11-20T07:36:44;25.05;;;15.43;;
24357;SDS011;13668;52.154;5.580;2022-11-20T07:39:10;19.30;;;15.23;;
24357;SDS011;13668;52.154;5.580;2022-11-20T07:41:36;23.88;;;16.55;;
24357;SDS011;13668;52.154;5.580;2022-11-20T07:44:02;25.75;;;17.60;;
24357;SDS011;13668;52.154;5.580;2022-11-20T07:46:28;26.15;;;16.58;;
24357;SDS011;13668;52.154;5.580;2022-11-20T07:48:54;29.10;;;16.58;;
24357;SDS011;13668;52.154;5.580;2022-11-20T07:51:20;25.60;;;17.23;;
24357;SDS011;13668;52.154;5.580;2022-11-20T07:53:47;22.85;;;14.68;;
24357;SDS011;13668;52.154;5.580;2022-11-20T07:56:13;25.00;;;17.30;;
24357;SDS011;13668;52.154;5.580;2022-11-20T07:58:39;25.05;;;17.45;;
24357;SDS011;13668;52.154;5.580;2022-11-20T08:01:06;27.40;;;18.67;;
24357;SDS011;13668;52.154;5.580;2022-11-20T08:03:32;27.65;;;18.30;;
24357;SDS011;13668;52.154;5.580;2022-11-20T08:05:58;25.40;;;18.65;;
24357;SDS011;13668;52.154;5.580;2022-11-20T08:08:25;31.05;;;20.42;;
24357;SDS011;13668;52.154;5.580;2022-11-20T08:10:51;30.40;;;19.10;;
24357;SDS011;13668;52.154;5.580;2022-11-20T08:13:17;29.25;;;18.98;;
24357;SDS011;13668;52.154;5.580;2022-11-20T08:16:02;28.40;;;19.35;;
24357;SDS011;13668;52.154;5.580;2022-11-20T08:18:28;30.85;;;20.95;;
24357;SDS011;13668;52.154;5.580;2022-11-20T08:20:54;31.10;;;20.02;;
24357;SDS011;13668;52.154;5.580;2022-11-20T08:23:20;32.80;;;21.83;;
24357;SDS011;13668;52.154;5.580;2022-11-20T08:25:48;32.75;;;22.92;;
24357;SDS011;13668;52.154;5.580;2022-11-20T08:28:15;29.02;;;20.25;;
24357;SDS011;13668;52.154;5.580;2022-11-20T08:30:41;25.45;;;17.83;;
24357;SDS011;13668;52.154;5.580;2022-11-20T08:33:08;29.05;;;18.85;;
24357;SDS011;13668;52.154;5.580;2022-11-20T08:35:34;25.58;;;18.35;;
24357;SDS011;13668;52.154;5.580;2022-11-20T08:38:01;28.77;;;19.27;;
24357;SDS011;13668;52.154;5.580;2022-11-20T08:40:27;29.05;;;18.08;;
24357;SDS011;13668;52.154;5.580;2022-11-20T08:42:53;26.55;;;17.80;;
24357;SDS011;13668;52.154;5.580;2022-11-20T08:45:19;26.95;;;17.83;;
24357;SDS011;13668;52.154;5.580;2022-11-20T08:47:45;25.00;;;18.75;;
24357;SDS011;13668;52.154;5.580;2022-11-20T08:50:12;28.38;;;19.00;;
24357;SDS011;13668;52.154;5.580;2022-11-20T08:52:39;24.60;;;18.45;;
24357;SDS011;13668;52.154;5.580;2022-11-20T08:55:05;28.77;;;19.77;;
24357;SDS011;13668;52.154;5.580;2022-11-20T08:57:32;26.85;;;18.35;;
24357;SDS011;13668;52.154;5.580;2022-11-20T08:59:58;29.85;;;18.92;;
24357;SDS011;13668;52.154;5.580;2022-11-20T09:02:24;32.72;;;20.27;;
24357;SDS011;13668;52.154;5.580;2022-11-20T09:04:50;28.73;;;19.38;;
24357;SDS011;13668;52.154;5.580;2022-11-20T09:07:16;32.42;;;21.00;;
24357;SDS011;13668;52.154;5.580;2022-11-20T09:09:42;27.85;;;20.02;;
24357;SDS011;13668;52.154;5.580;2022-11-20T09:12:08;28.50;;;19.90;;
24357;SDS011;13668;52.154;5.580;2022-11-20T09:14:34;27.83;;;19.35;;
24357;SDS011;13668;52.154;5.580;2022-11-20T09:17:00;29.48;;;20.63;;
24357;SDS011;13668;52.154;5.580;2022-11-20T09:19:26;32.38;;;20.85;;
24357;SDS011;13668;52.154;5.580;2022-11-20T09:21:52;28.67;;;20.38;;
24357;SDS011;13668;52.154;5.580;2022-11-20T09:24:18;30.08;;;21.27;;
24357;SDS011;13668;52.154;5.580;2022-11-20T09:26:45;32.13;;;20.88;;
24357;SDS011;13668;52.154;5.580;2022-11-20T09:29:12;32.42;;;21.00;;
24357;SDS011;13668;52.154;5.580;2022-11-20T09:31:38;33.40;;;21.27;;
24357;SDS011;13668;52.154;5.580;2022-11-20T09:34:04;33.50;;;21.42;;
24357;SDS011;13668;52.154;5.580;2022-11-20T09:36:30;30.67;;;20.05;;
24357;SDS011;13668;52.154;5.580;2022-11-20T09:38:55;28.15;;;19.70;;
24357;SDS011;13668;52.154;5.580;2022-11-20T09:41:35;28.75;;;20.73;;
24357;SDS011;13668;52.154;5.580;2022-11-20T09:44:05;29.58;;;19.77;;
24357;SDS011;13668;52.154;5.580;2022-11-20T09:46:36;32.53;;;21.15;;
24357;SDS011;13668;52.154;5.580;2022-11-20T09:49:13;32.72;;;21.92;;
24357;SDS011;13668;52.154;5.580;2022-11-20T09:52:04;29.83;;;20.98;;
24357;SDS011;13668;52.154;5.580;2022-11-20T09:54:32;34.00;;;21.08;;
24357;SDS011;13668;52.154;5.580;2022-11-20T09:57:00;36.95;;;23.10;;
24357;SDS011;13668;52.154;5.580;2022-11-20T10:01:52;33.28;;;21.17;;
24357;SDS011;13668;52.154;5.580;2022-11-20T10:04:19;30.48;;;21.33;;
24357;SDS011;13668;52.154;5.580;2022-11-20T10:09:31;42.25;;;27.83;;
24357;SDS011;13668;52.154;5.580;2022-11-20T10:22:26;38.85;;;24.48;;
24357;SDS011;13668;52.154;5.580;2022-11-20T10:24:55;35.88;;;23.17;;
24357;SDS011;13668;52.154;5.580;2022-11-20T10:29:56;40.13;;;25.80;;
24357;SDS011;13668;52.154;5.580;2022-11-20T10:32:23;33.85;;;22.92;;
24357;SDS011;13668;52.154;5.580;2022-11-20T10:34:54;36.80;;;23.17;;
24357;SDS011;13668;52.154;5.580;2022-11-20T10:37:24;41.30;;;25.20;;
24357;SDS011;13668;52.154;5.580;2022-11-20T10:42:17;35.58;;;23.55;;
24357;SDS011;13668;52.154;5.580;2022-11-20T10:44:51;32.90;;;22.50;;
24357;SDS011;13668;52.154;5.580;2022-11-20T10:47:28;35.28;;;22.98;;
24357;SDS011;13668;52.154;5.580;2022-11-20T10:49:56;41.90;;;24.52;;
24357;SDS011;13668;52.154;5.580;2022-11-20T10:52:32;34.72;;;23.35;;
24357;SDS011;13668;52.154;5.580;2022-11-20T10:55:06;37.50;;;24.13;;
24357;SDS011;13668;52.154;5.580;2022-11-20T11:00:19;39.03;;;24.85;;
24357;SDS011;13668;52.154;5.580;2022-11-20T11:07:43;36.63;;;24.35;;
24357;SDS011;13668;52.154;5.580;2022-11-20T11:12:55;39.65;;;25.25;;
24357;SDS011;13668;52.154;5.580;2022-11-20T11:15:28;38.38;;;25.80;;
24357;SDS011;13668;52.154;5.580;2022-11-20T11:17:55;38.55;;;26.35;;
24357;SDS011;13668;52.154;5.580;2022-11-20T11:20:25;41.67;;;25.20;;
24357;SDS011;13668;52.154;5.580;2022-11-20T11:22:52;39.08;;;26.77;;
24357;SDS011;13668;52.154;5.580;2022-11-20T11:27:49;38.85;;;24.83;;
24357;SDS011;13668;52.154;5.580;2022-11-20T11:30:16;40.63;;;26.00;;
24357;SDS011;13668;52.154;5.580;2022-11-20T11:32:45;45.70;;;27.60;;
24357;SDS011;13668;52.154;5.580;2022-11-20T11:35:45;43.60;;;27.98;;
24357;SDS011;13668;52.154;5.580;2022-11-20T11:38:10;41.63;;;26.77;;
24357;SDS011;13668;52.154;5.580;2022-11-20T11:40:39;50.30;;;27.60;;
24357;SDS011;13668;52.154;5.580;2022-11-20T11:43:06;42.00;;;26.60;;
24357;SDS011;13668;52.154;5.580;2022-11-20T11:45:53;44.15;;;26.80;;
24357;SDS011;13668;52.154;5.580;2022-11-20T11:48:20;39.60;;;25.60;;
24357;SDS011;13668;52.154;5.580;2022-11-20T11:50:52;42.15;;;26.23;;
24357;SDS011;13668;52.154;5.580;2022-11-20T11:53:21;42.25;;;27.05;;
24357;SDS011;13668;52.154;5.580;2022-11-20T11:55:58;41.65;;;25.80;;
24357;SDS011;13668;52.154;5.580;2022-11-20T12:00:56;42.55;;;26.92;;
24357;SDS011;13668;52.154;5.580;2022-11-20T12:06:15;43.03;;;25.95;;
24357;SDS011;13668;52.154;5.580;2022-11-20T12:08:48;41.05;;;26.77;;
24357;SDS011;13668;52.154;5.580;2022-11-20T12:13:54;43.95;;;27.85;;
24357;SDS011;13668;52.154;5.580;2022-11-20T12:16:22;45.58;;;28.02;;
24357;SDS011;13668;52.154;5.580;2022-11-20T12:18:49;47.50;;;29.38;;
24357;SDS011;13668;52.154;5.580;2022-11-20T12:26:39;46.08;;;27.83;;
24357;SDS011;13668;52.154;5.580;2022-11-20T12:34:20;46.45;;;29.52;;
24357;SDS011;13668;52.154;5.580;2022-11-20T12:39:42;43.05;;;26.35;;
24357;SDS011;13668;52.154;5.580;2022-11-20T12:42:12;46.17;;;28.20;;
24357;SDS011;13668;52.154;5.580;2022-11-20T12:55:42;44.22;;;28.40;;
24357;SDS011;13668;52.154;5.580;2022-11-20T12:58:17;45.22;;;27.55;;
24357;SDS011;13668;52.154;5.580;2022-11-20T13:00:55;46.58;;;27.77;;
24357;SDS011;13668;52.154;5.580;2022-11-20T13:06:05;44.35;;;26.88;;
24357;SDS011;13668;52.154;5.580;2022-11-20T13:08:41;44.22;;;27.75;;
24357;SDS011;13668;52.154;5.580;2022-11-20T13:11:10;46.08;;;28.92;;
24357;SDS011;13668;52.154;5.580;2022-11-20T13:18:56;46.88;;;30.55;;
24357;SDS011;13668;52.154;5.580;2022-11-20T13:21:36;51.13;;;33.03;;
24357;SDS011;13668;52.154;5.580;2022-11-20T13:29:27;46.13;;;28.17;;
24357;SDS011;13668;52.154;5.580;2022-11-20T13:32:01;43.60;;;29.40;;
24357;SDS011;13668;52.154;5.580;2022-11-20T13:34:28;92.43;;;61.30;;
24357;SDS011;13668;52.154;5.580;2022-11-20T13:36:58;50.40;;;32.00;;
24357;SDS011;13668;52.154;5.580;2022-11-20T13:39:37;96.65;;;67.03;;
24357;SDS011;13668;52.154;5.580;2022-11-20T13:44:46;49.38;;;29.98;;
24357;SDS011;13668;52.154;5.580;2022-11-20T13:47:26;49.97;;;31.40;;
24357;SDS011;13668;52.154;5.580;2022-11-20T13:49:52;54.60;;;37.25;;
24357;SDS011;13668;52.154;5.580;2022-11-20T14:00:19;50.35;;;32.15;;
24357;SDS011;13668;52.154;5.580;2022-11-20T14:02:50;53.45;;;35.15;;
24357;SDS011;13668;52.154;5.580;2022-11-20T14:05:20;52.67;;;34.45;;
24357;SDS011;13668;52.154;5.580;2022-11-20T14:07:47;56.42;;;35.65;;
24357;SDS011;13668;52.154;5.580;2022-11-20T14:12:46;52.70;;;34.53;;
24357;SDS011;13668;52.154;5.580;2022-11-20T14:15:23;57.50;;;34.58;;
24357;SDS011;13668;52.154;5.580;2022-11-20T14:17:49;59.55;;;37.83;;
24357;SDS011;13668;52.154;5.580;2022-11-20T14:20:18;53.05;;;32.45;;
24357;SDS011;13668;52.154;5.580;2022-11-20T14:22:51;54.70;;;35.10;;
24357;SDS011;13668;52.154;5.580;2022-11-20T14:27:44;52.10;;;33.33;;
24357;SDS011;13668;52.154;5.580;2022-11-20T14:30:16;55.92;;;34.63;;
24357;SDS011;13668;52.154;5.580;2022-11-20T14:32:42;53.95;;;34.28;;
24357;SDS011;13668;52.154;5.580;2022-11-20T14:35:13;67.43;;;43.13;;
24357;SDS011;13668;52.154;5.580;2022-11-20T14:37:40;76.15;;;48.10;;
24357;SDS011;13668;52.154;5.580;2022-11-20T14:42:51;64.90;;;40.42;;
24357;SDS011;13668;52.154;5.580;2022-11-20T14:45:17;62.35;;;41.45;;
24357;SDS011;13668;52.154;5.580;2022-11-20T14:47:44;60.30;;;37.50;;
24357;SDS011;13668;52.154;5.580;2022-11-20T14:50:15;57.10;;;35.40;;
24357;SDS011;13668;52.154;5.580;2022-11-20T14:52:49;59.05;;;36.78;;
24357;SDS011;13668;52.154;5.580;2022-11-20T14:55:24;55.63;;;33.92;;
24357;SDS011;13668;52.154;5.580;2022-11-20T14:57:54;58.65;;;37.65;;
24357;SDS011;13668;52.154;5.580;2022-11-20T15:00:21;54.20;;;35.05;;
24357;SDS011;13668;52.154;5.580;2022-11-20T15:02:47;57.97;;;36.67;;
24357;SDS011;13668;52.154;5.580;2022-11-20T15:05:14;58.30;;;37.50;;
24357;SDS011;13668;52.154;5.580;2022-11-20T15:07:42;61.75;;;35.42;;
24357;SDS011;13668;52.154;5.580;2022-11-20T15:10:11;60.33;;;34.95;;
24357;SDS011;13668;52.154;5.580;2022-11-20T15:12:48;59.85;;;35.28;;
24357;SDS011;13668;52.154;5.580;2022-11-20T15:18:02;58.05;;;35.75;;
24357;SDS011;13668;52.154;5.580;2022-11-20T15:20:30;61.72;;;36.83;;
24357;SDS011;13668;52.154;5.580;2022-11-20T15:22:56;60.63;;;34.78;;
24357;SDS011;13668;52.154;5.580;2022-11-20T15:25:22;64.00;;;37.20;;
24357;SDS011;13668;52.154;5.580;2022-11-20T15:27:50;67.47;;;41.35;;
24357;SDS011;13668;52.154;5.580;2022-11-20T15:30:20;60.78;;;36.17;;
24357;SDS011;13668;52.154;5.580;2022-11-20T15:32:47;83.43;;;47.95;;
24357;SDS011;13668;52.154;5.580;2022-11-20T15:35:13;65.43;;;37.47;;
24357;SDS011;13668;52.154;5.580;2022-11-20T15:37:40;64.72;;;37.95;;
24357;SDS011;13668;52.154;5.580;2022-11-20T15:40:06;67.57;;;36.13;;
24357;SDS011;13668;52.154;5.580;2022-11-20T15:42:33;64.82;;;37.70;;
24357;SDS011;13668;52.154;5.580;2022-11-20T15:44:59;70.57;;;39.28;;
24357;SDS011;13668;52.154;5.580;2022-11-20T15:47:28;65.63;;;37.42;;
24357;SDS011;13668;52.154;5.580;2022-11-20T15:59:00;74.75;;;43.80;;
24357;SDS011;13668;52.154;5.580;2022-11-20T16:01:26;83.40;;;49.88;;
24357;SDS011;13668;52.154;5.580;2022-11-20T16:03:52;76.57;;;45.05;;
24357;SDS011;13668;52.154;5.580;2022-11-20T16:06:18;116.18;;;73.90;;
24357;SDS011;13668;52.154;5.580;2022-11-20T16:08:49;109.25;;;68.03;;
24357;SDS011;13668;52.154;5.580;2022-11-20T16:11:30;110.32;;;70.57;;
24357;SDS011;13668;52.154;5.580;2022-11-20T16:30:14;80.15;;;45.65;;
24357;SDS011;13668;52.154;5.580;2022-11-20T16:32:40;71.20;;;41.13;;